sensor_id;sensor_type;location;lat;lon;timestamp;pressure;altitude;pressure_sealevel;temperature;humidity
6094;BME280;19964;42.060;24.700;2023-07-28T00:00:02;97511.88;;;17.16;61.86
6094;BME280;19964;42.060;24.700;2023-07-28T00:02:31;97502.19;;;17.16;61.88
6094;BME280;19964;42.060;24.700;2023-07-28T00:04:57;97520.81;;;17.05;62.40
6094;BME280;19964;42.060;24.700;2023-07-28T00:07:24;97516.66;;;16.99;62.82
6094;BME280;19964;42.060;24.700;2023-07-28T00:09:50;97519.53;;;16.87;63.48
6094;BME280;19964;42.060;24.700;2023-07-28T00:12:17;97517.72;;;16.72;63.59
6094;BME280;19964;42.060;24.700;2023-07-28T00:14:44;97516.13;;;16.66;64.22
6094;BME280;19964;42.060;24.700;2023-07-28T00:17:11;97517.72;;;16.67;64.47
6094;BME280;19964;42.060;24.700;2023-07-28T00:19:39;97520.06;;;16.69;64.09
6094;BME280;19964;42.060;24.700;2023-07-28T00:22:05;97513.53;;;16.71;64.28
6094;BME280;19964;42.060;24.700;2023-07-28T00:24:32;97509.09;;;16.52;65.02
6094;BME280;19964;42.060;24.700;2023-07-28T00:26:59;97509.06;;;16.47;64.91
6094;BME280;19964;42.060;24.700;2023-07-28T00:29:25;97508.28;;;16.41;64.53
6094;BME280;19964;42.060;24.700;2023-07-28T00:31:52;97512.22;;;16.49;64.52
6094;BME280;19964;42.060;24.700;2023-07-28T00:34:19;97508.03;;;16.53;64.37
6094;BME280;19964;42.060;24.700;2023-07-28T00:36:47;97506.22;;;16.63;64.52
6094;BME280;19964;42.060;24.700;2023-07-28T00:39:13;97500.97;;;16.68;64.14
6094;BME280;19964;42.060;24.700;2023-07-28T00:41:40;97505.94;;;16.75;64.33
6094;BME280;19964;42.060;24.700;2023-07-28T00:44:07;97505.41;;;16.68;63.86
6094;BME280;19964;42.060;24.700;2023-07-28T00:46:33;97502.28;;;16.61;63.97
6094;BME280;19964;42.060;24.700;2023-07-28T00:49:00;97500.69;;;16.45;64.79
6094;BME280;19964;42.060;24.700;2023-07-28T00:51:29;97498.06;;;16.45;65.24
6094;BME280;19964;42.060;24.700;2023-07-28T00:53:57;97504.88;;;16.41;65.45
6094;BME280;19964;42.060;24.700;2023-07-28T00:56:24;97503.81;;;16.27;65.87
6094;BME280;19964;42.060;24.700;2023-07-28T00:58:51;97502.00;;;16.22;65.61
6094;BME280;19964;42.060;24.700;2023-07-28T01:01:18;97505.66;;;16.41;65.60
6094;BME280;19964;42.060;24.700;2023-07-28T01:03:45;97503.84;;;16.42;65.59
6094;BME280;19964;42.060;24.700;2023-07-28T01:06:13;97502.78;;;16.48;65.33
6094;BME280;19964;42.060;24.700;2023-07-28T01:08:42;97498.63;;;16.52;65.81
6094;BME280;19964;42.060;24.700;2023-07-28T01:11:14;97494.13;;;16.42;67.25
6094;BME280;19964;42.060;24.700;2023-07-28T01:13:40;97490.22;;;16.40;67.30
6094;BME280;19964;42.060;24.700;2023-07-28T01:16:07;97493.63;;;16.35;67.18
6094;BME280;19964;42.060;24.700;2023-07-28T01:18:34;97487.09;;;16.28;67.06
6094;BME280;19964;42.060;24.700;2023-07-28T01:21:02;97498.06;;;16.30;67.09
6094;BME280;19964;42.060;24.700;2023-07-28T01:23:33;97495.19;;;16.26;67.11
6094;BME280;19964;42.060;24.700;2023-07-28T01:26:05;97492.31;;;16.23;66.77
6094;BME280;19964;42.060;24.700;2023-07-28T01:28:34;97488.13;;;16.37;65.99
6094;BME280;19964;42.060;24.700;2023-07-28T01:31:01;97492.06;;;16.39;66.24
6094;BME280;19964;42.060;24.700;2023-07-28T01:33:28;97493.88;;;16.34;66.70
6094;BME280;19964;42.060;24.700;2023-07-28T01:35:55;97498.56;;;16.27;66.43
6094;BME280;19964;42.060;24.700;2023-07-28T01:38:21;97492.81;;;16.20;66.47
6094;BME280;19964;42.060;24.700;2023-07-28T01:40:48;97492.53;;;16.11;66.72
6094;BME280;19964;42.060;24.700;2023-07-28T01:43:15;97488.59;;;15.93;67.49
6094;BME280;19964;42.060;24.700;2023-07-28T01:45:43;97492.53;;;15.96;67.31
6094;BME280;19964;42.060;24.700;2023-07-28T01:48:09;97488.59;;;15.93;67.63
6094;BME280;19964;42.060;24.700;2023-07-28T01:50:36;97495.94;;;15.96;67.71
6094;BME280;19964;42.060;24.700;2023-07-28T01:53:03;97489.91;;;15.91;67.92
6094;BME280;19964;42.060;24.700;2023-07-28T01:55:30;97483.09;;;15.85;68.19
6094;BME280;19964;42.060;24.700;2023-07-28T01:57:58;97489.38;;;15.94;67.89
6094;BME280;19964;42.060;24.700;2023-07-28T02:00:24;97492.00;;;15.94;67.92
6094;BME280;19964;42.060;24.700;2023-07-28T02:02:52;97506.09;;;15.88;68.06
6094;BME280;19964;42.060;24.700;2023-07-28T02:05:20;97496.44;;;15.88;67.59
6094;BME280;19964;42.060;24.700;2023-07-28T02:07:47;97504.28;;;15.83;67.83
6094;BME280;19964;42.060;24.700;2023-07-28T02:10:13;97499.00;;;15.78;67.83
6094;BME280;19964;42.060;24.700;2023-07-28T02:12:40;97502.94;;;15.76;68.22
6094;BME280;19964;42.060;24.700;2023-07-28T02:15:07;97499.00;;;15.78;68.34
6094;BME280;19964;42.060;24.700;2023-07-28T02:17:34;97501.66;;;15.83;68.28
6094;BME280;19964;42.060;24.700;2023-07-28T02:20:02;97488.31;;;15.75;68.04
6094;BME280;19964;42.060;24.700;2023-07-28T02:22:29;97491.16;;;15.58;69.03
6094;BME280;19964;42.060;24.700;2023-07-28T02:24:56;97502.03;;;15.45;69.42
6094;BME280;19964;42.060;24.700;2023-07-28T02:27:25;97497.34;;;15.42;70.41
6094;BME280;19964;42.060;24.700;2023-07-28T02:29:52;97498.81;;;15.28;70.39
6094;BME280;19964;42.060;24.700;2023-07-28T02:32:19;97496.94;;;15.18;70.71
6094;BME280;19964;42.060;24.700;2023-07-28T02:34:45;97505.31;;;15.21;70.50
6094;BME280;19964;42.060;24.700;2023-07-28T02:37:13;97499.50;;;15.08;71.86
6094;BME280;19964;42.060;24.700;2023-07-28T02:39:40;97495.34;;;15.12;70.76
6094;BME280;19964;42.060;24.700;2023-07-28T02:42:07;97496.34;;;15.06;71.17
6094;BME280;19964;42.060;24.700;2023-07-28T02:44:34;97500.50;;;15.02;71.75
6094;BME280;19964;42.060;24.700;2023-07-28T02:47:00;97501.56;;;15.01;71.85
6094;BME280;19964;42.060;24.700;2023-07-28T02:49:27;97503.56;;;14.89;71.75
6094;BME280;19964;42.060;24.700;2023-07-28T02:51:53;97508.69;;;14.79;71.56
6094;BME280;19964;42.060;24.700;2023-07-28T02:54:21;97507.09;;;14.73;72.04
6094;BME280;19964;42.060;24.700;2023-07-28T02:56:49;97505.75;;;14.66;72.41
6094;BME280;19964;42.060;24.700;2023-07-28T02:59:15;97505.28;;;14.74;72.17
6094;BME280;19964;42.060;24.700;2023-07-28T03:01:42;97513.31;;;14.67;72.11
6094;BME280;19964;42.060;24.700;2023-07-28T03:04:08;97507.28;;;14.62;72.15
6094;BME280;19964;42.060;24.700;2023-07-28T03:06:35;97506.53;;;14.66;71.58
6094;BME280;19964;42.060;24.700;2023-07-28T03:09:02;97507.06;;;14.68;71.34
6094;BME280;19964;42.060;24.700;2023-07-28T03:11:30;97507.53;;;14.60;70.96
6094;BME280;19964;42.060;24.700;2023-07-28T03:13:56;97513.84;;;14.69;70.64
6094;BME280;19964;42.060;24.700;2023-07-28T03:16:23;97512.75;;;14.60;71.36
6094;BME280;19964;42.060;24.700;2023-07-28T03:18:50;97518.63;;;14.46;71.37
6094;BME280;19964;42.060;24.700;2023-07-28T03:21:16;97506.66;;;14.50;71.11
6094;BME280;19964;42.060;24.700;2023-07-28T03:23:43;97516.88;;;14.56;70.76
6094;BME280;19964;42.060;24.700;2023-07-28T03:26:09;97516.91;;;14.61;70.40
6094;BME280;19964;42.060;24.700;2023-07-28T03:28:37;97517.44;;;14.63;69.83
6094;BME280;19964;42.060;24.700;2023-07-28T03:31:04;97524.06;;;14.76;69.46
6094;BME280;19964;42.060;24.700;2023-07-28T03:33:31;97519.41;;;14.83;69.00
6094;BME280;19964;42.060;24.700;2023-07-28T03:35:57;97520.75;;;14.90;67.56
6094;BME280;19964;42.060;24.700;2023-07-28T03:38:24;97527.94;;;15.10;67.03
6094;BME280;19964;42.060;24.700;2023-07-28T03:40:53;97528.88;;;15.36;66.16
6094;BME280;19964;42.060;24.700;2023-07-28T03:43:20;97531.34;;;15.52;65.49
6094;BME280;19964;42.060;24.700;2023-07-28T03:45:48;97528.53;;;15.74;64.27
6094;BME280;19964;42.060;24.700;2023-07-28T03:48:15;97540.34;;;16.01;64.10
6094;BME280;19964;42.060;24.700;2023-07-28T03:50:41;97534.88;;;16.13;63.28
6094;BME280;19964;42.060;24.700;2023-07-28T03:53:08;97539.38;;;16.23;62.73
6094;BME280;19964;42.060;24.700;2023-07-28T03:55:34;97542.78;;;16.28;62.67
6094;BME280;19964;42.060;24.700;2023-07-28T03:58:01;97550.16;;;16.56;61.55
6094;BME280;19964;42.060;24.700;2023-07-28T04:00:28;97548.84;;;16.64;60.41
6094;BME280;19964;42.060;24.700;2023-07-28T04:02:56;97550.16;;;16.71;60.35
6094;BME280;19964;42.060;24.700;2023-07-28T04:05:23;97551.97;;;16.86;58.98
6094;BME280;19964;42.060;24.700;2023-07-28T04:07:50;97544.59;;;17.13;58.56
6094;BME280;19964;42.060;24.700;2023-07-28T04:10:16;97546.13;;;17.49;57.67
6094;BME280;19964;42.060;24.700;2023-07-28T04:12:43;97552.63;;;17.62;56.85
6094;BME280;19964;42.060;24.700;2023-07-28T04:15:10;97555.53;;;17.45;57.26
6094;BME280;19964;42.060;24.700;2023-07-28T04:17:36;97561.53;;;17.56;56.75
6094;BME280;19964;42.060;24.700;2023-07-28T04:20:05;97519.66;;;17.51;55.58
6094;BME280;19964;42.060;24.700;2023-07-28T04:22:32;97554.84;;;17.94;55.32
6094;BME280;19964;42.060;24.700;2023-07-28T04:24:58;97560.75;;;18.19;54.33
6094;BME280;19964;42.060;24.700;2023-07-28T04:27:25;97557.69;;;18.46;53.69
6094;BME280;19964;42.060;24.700;2023-07-28T04:29:52;97557.91;;;18.54;53.47
6094;BME280;19964;42.060;24.700;2023-07-28T04:32:18;97561.72;;;18.72;52.70
6094;BME280;19964;42.060;24.700;2023-07-28T04:34:45;97563.38;;;19.20;51.72
6094;BME280;19964;42.060;24.700;2023-07-28T04:37:13;97561.75;;;19.53;51.64
6094;BME280;19964;42.060;24.700;2023-07-28T04:39:39;97559.63;;;19.97;49.66
6094;BME280;19964;42.060;24.700;2023-07-28T04:42:06;97554.94;;;20.13;51.58
6094;BME280;19964;42.060;24.700;2023-07-28T04:44:33;97557.84;;;20.11;53.84
6094;BME280;19964;42.060;24.700;2023-07-28T04:46:59;97557.56;;;19.52;56.24
6094;BME280;19964;42.060;24.700;2023-07-28T04:49:26;97559.00;;;19.63;58.78
6094;BME280;19964;42.060;24.700;2023-07-28T04:51:52;97566.31;;;19.66;57.20
6094;BME280;19964;42.060;24.700;2023-07-28T04:54:20;97571.28;;;19.91;56.16
6094;BME280;19964;42.060;24.700;2023-07-28T04:56:47;97581.53;;;19.93;56.23
6094;BME280;19964;42.060;24.700;2023-07-28T04:59:15;97569.34;;;20.20;55.99
6094;BME280;19964;42.060;24.700;2023-07-28T05:01:41;97572.03;;;20.53;55.45
6094;BME280;19964;42.060;24.700;2023-07-28T05:04:08;97570.59;;;21.11;53.54
6094;BME280;19964;42.060;24.700;2023-07-28T05:06:35;97575.81;;;21.57;52.07
6094;BME280;19964;42.060;24.700;2023-07-28T05:09:01;97571.03;;;21.59;52.05
6094;BME280;19964;42.060;24.700;2023-07-28T05:11:29;97577.91;;;20.82;53.67
6094;BME280;19964;42.060;24.700;2023-07-28T05:13:56;97582.72;;;20.61;54.13
6094;BME280;19964;42.060;24.700;2023-07-28T05:16:22;97579.13;;;20.71;54.26
6094;BME280;19964;42.060;24.700;2023-07-28T05:18:49;97586.53;;;21.19;53.49
6094;BME280;19964;42.060;24.700;2023-07-28T05:21:16;97586.75;;;21.37;52.76
6094;BME280;19964;42.060;24.700;2023-07-28T05:23:42;97589.06;;;21.38;53.52
6094;BME280;19964;42.060;24.700;2023-07-28T05:26:09;97597.97;;;21.56;50.84
6094;BME280;19964;42.060;24.700;2023-07-28T05:28:37;97592.72;;;21.56;50.56
6094;BME280;19964;42.060;24.700;2023-07-28T05:31:04;97597.13;;;22.01;50.42
6094;BME280;19964;42.060;24.700;2023-07-28T05:33:30;97596.75;;;21.80;50.84
6094;BME280;19964;42.060;24.700;2023-07-28T05:36:00;97602.09;;;22.02;50.98
6094;BME280;19964;42.060;24.700;2023-07-28T05:38:27;97605.38;;;22.35;49.36
6094;BME280;19964;42.060;24.700;2023-07-28T05:40:56;97602.56;;;22.18;48.57
6094;BME280;19964;42.060;24.700;2023-07-28T05:43:23;97599.38;;;22.79;49.21
6094;BME280;19964;42.060;24.700;2023-07-28T05:45:51;97598.47;;;22.61;48.67
6094;BME280;19964;42.060;24.700;2023-07-28T05:48:18;97618.47;;;22.40;47.76
6094;BME280;19964;42.060;24.700;2023-07-28T05:50:48;97605.81;;;22.64;48.07
6094;BME280;19964;42.060;24.700;2023-07-28T05:53:16;97611.56;;;22.88;47.95
6094;BME280;19964;42.060;24.700;2023-07-28T05:55:43;97602.75;;;22.93;46.76
6094;BME280;19964;42.060;24.700;2023-07-28T05:58:10;97605.72;;;23.44;46.78
6094;BME280;19964;42.060;24.700;2023-07-28T06:00:38;97618.47;;;22.98;47.25
6094;BME280;19964;42.060;24.700;2023-07-28T06:03:07;97606.44;;;22.92;47.82
6094;BME280;19964;42.060;24.700;2023-07-28T06:05:34;97610.06;;;22.74;47.75
6094;BME280;19964;42.060;24.700;2023-07-28T06:08:01;97609.16;;;23.00;49.54
6094;BME280;19964;42.060;24.700;2023-07-28T06:10:27;97606.78;;;23.21;48.14
6094;BME280;19964;42.060;24.700;2023-07-28T06:12:54;97612.22;;;23.16;47.45
6094;BME280;19964;42.060;24.700;2023-07-28T06:15:21;97603.63;;;23.11;47.74
6094;BME280;19964;42.060;24.700;2023-07-28T06:17:49;97622.44;;;23.62;47.09
6094;BME280;19964;42.060;24.700;2023-07-28T06:20:17;97620.59;;;23.71;45.64
6094;BME280;19964;42.060;24.700;2023-07-28T06:22:44;97611.59;;;23.80;45.19
6094;BME280;19964;42.060;24.700;2023-07-28T06:25:11;97629.78;;;23.73;45.44
6094;BME280;19964;42.060;24.700;2023-07-28T06:27:38;97599.63;;;23.44;45.48
6094;BME280;19964;42.060;24.700;2023-07-28T06:30:06;97620.94;;;23.17;47.05
6094;BME280;19964;42.060;24.700;2023-07-28T06:32:33;97601.22;;;24.01;47.62
6094;BME280;19964;42.060;24.700;2023-07-28T06:34:59;97604.22;;;24.08;45.37
6094;BME280;19964;42.060;24.700;2023-07-28T06:37:28;97590.41;;;24.45;45.91
6094;BME280;19964;42.060;24.700;2023-07-28T06:39:55;97598.97;;;24.68;43.01
6094;BME280;19964;42.060;24.700;2023-07-28T06:42:21;97606.31;;;24.62;43.18
6094;BME280;19964;42.060;24.700;2023-07-28T06:44:49;97596.41;;;24.03;45.12
6094;BME280;19964;42.060;24.700;2023-07-28T06:47:16;97596.97;;;24.65;44.24
6094;BME280;19964;42.060;24.700;2023-07-28T06:49:43;97595.72;;;25.51;42.56
6094;BME280;19964;42.060;24.700;2023-07-28T06:52:10;97587.03;;;26.30;40.09
6094;BME280;19964;42.060;24.700;2023-07-28T06:54:39;97598.94;;;25.66;40.73
6094;BME280;19964;42.060;24.700;2023-07-28T06:57:06;97586.09;;;25.30;43.14
6094;BME280;19964;42.060;24.700;2023-07-28T06:59:32;97596.28;;;25.19;42.89
6094;BME280;19964;42.060;24.700;2023-07-28T07:01:59;97585.75;;;25.48;41.72
6094;BME280;19964;42.060;24.700;2023-07-28T07:04:26;97600.19;;;25.05;42.24
6094;BME280;19964;42.060;24.700;2023-07-28T07:06:53;97531.16;;;24.84;42.70
6094;BME280;19964;42.060;24.700;2023-07-28T07:09:20;97593.91;;;26.02;42.30
6094;BME280;19964;42.060;24.700;2023-07-28T07:11:48;97592.69;;;25.99;40.52
6094;BME280;19964;42.060;24.700;2023-07-28T07:14:15;97595.09;;;25.54;40.60
6094;BME280;19964;42.060;24.700;2023-07-28T07:16:41;97598.25;;;25.31;40.20
6094;BME280;19964;42.060;24.700;2023-07-28T07:19:08;97592.84;;;26.23;39.24
6094;BME280;19964;42.060;24.700;2023-07-28T07:21:35;97594.53;;;26.69;40.73
6094;BME280;19964;42.060;24.700;2023-07-28T07:24:02;97590.97;;;25.66;40.35
6094;BME280;19964;42.060;24.700;2023-07-28T07:26:30;97593.19;;;25.93;40.13
6094;BME280;19964;42.060;24.700;2023-07-28T07:28:58;97589.75;;;26.42;40.41
6094;BME280;19964;42.060;24.700;2023-07-28T07:31:25;97598.25;;;26.35;38.46
6094;BME280;19964;42.060;24.700;2023-07-28T07:33:51;97599.66;;;26.54;40.44
6094;BME280;19964;42.060;24.700;2023-07-28T07:36:19;97598.03;;;27.14;38.16
6094;BME280;19964;42.060;24.700;2023-07-28T07:38:46;97596.69;;;27.53;38.30
6094;BME280;19964;42.060;24.700;2023-07-28T07:41:15;97591.38;;;27.53;40.13
6094;BME280;19964;42.060;24.700;2023-07-28T07:43:45;97589.03;;;27.40;37.17
6094;BME280;19964;42.060;24.700;2023-07-28T07:46:13;97588.69;;;27.41;37.89
6094;BME280;19964;42.060;24.700;2023-07-28T07:48:40;97586.84;;;28.02;36.67
6094;BME280;19964;42.060;24.700;2023-07-28T07:51:08;97590.88;;;28.48;35.98
6094;BME280;19964;42.060;24.700;2023-07-28T07:53:35;97585.50;;;28.87;35.86
6094;BME280;19964;42.060;24.700;2023-07-28T07:56:02;97585.97;;;28.77;34.97
6094;BME280;19964;42.060;24.700;2023-07-28T07:58:30;97588.03;;;27.80;35.71
6094;BME280;19964;42.060;24.700;2023-07-28T08:00:58;97581.13;;;28.28;36.22
6094;BME280;19964;42.060;24.700;2023-07-28T08:03:26;97585.38;;;27.92;35.81
6094;BME280;19964;42.060;24.700;2023-07-28T08:05:55;97587.72;;;27.82;36.18
6094;BME280;19964;42.060;24.700;2023-07-28T08:08:22;97582.94;;;27.87;35.42
6094;BME280;19964;42.060;24.700;2023-07-28T08:10:48;97574.97;;;28.51;34.77
6094;BME280;19964;42.060;24.700;2023-07-28T08:13:15;97570.28;;;27.36;35.69
6094;BME280;19964;42.060;24.700;2023-07-28T08:15:42;97571.94;;;27.53;37.19
6094;BME280;19964;42.060;24.700;2023-07-28T08:18:09;97568.81;;;27.39;35.95
6094;BME280;19964;42.060;24.700;2023-07-28T08:20:37;97567.72;;;27.76;37.14
6094;BME280;19964;42.060;24.700;2023-07-28T08:23:03;97557.41;;;28.10;35.37
6094;BME280;19964;42.060;24.700;2023-07-28T08:25:30;97568.41;;;27.85;35.40
6094;BME280;19964;42.060;24.700;2023-07-28T08:27:57;97567.13;;;28.18;36.28
6094;BME280;19964;42.060;24.700;2023-07-28T08:30:24;97560.19;;;27.90;35.81
6094;BME280;19964;42.060;24.700;2023-07-28T08:32:51;97561.81;;;28.86;35.16
6094;BME280;19964;42.060;24.700;2023-07-28T08:35:18;97558.72;;;29.74;35.98
6094;BME280;19964;42.060;24.700;2023-07-28T08:37:46;97557.94;;;29.58;33.75
6094;BME280;19964;42.060;24.700;2023-07-28T08:40:12;97564.13;;;28.72;33.97
6094;BME280;19964;42.060;24.700;2023-07-28T08:42:39;97554.00;;;28.93;34.08
6094;BME280;19964;42.060;24.700;2023-07-28T08:45:07;97544.13;;;29.09;32.91
6094;BME280;19964;42.060;24.700;2023-07-28T08:47:34;97542.09;;;29.34;35.35
6094;BME280;19964;42.060;24.700;2023-07-28T08:50:01;97547.59;;;29.72;31.87
6094;BME280;19964;42.060;24.700;2023-07-28T08:52:28;97548.97;;;29.81;32.86
6094;BME280;19964;42.060;24.700;2023-07-28T08:54:56;97542.50;;;29.51;32.50
6094;BME280;19964;42.060;24.700;2023-07-28T08:57:22;97546.25;;;28.88;31.52
6094;BME280;19964;42.060;24.700;2023-07-28T08:59:49;97550.00;;;29.15;30.56
6094;BME280;19964;42.060;24.700;2023-07-28T09:02:17;97544.63;;;29.93;31.31
6094;BME280;19964;42.060;24.700;2023-07-28T09:04:44;97544.66;;;30.12;29.65
6094;BME280;19964;42.060;24.700;2023-07-28T09:07:11;97543.13;;;29.60;30.60
6094;BME280;19964;42.060;24.700;2023-07-28T09:09:39;97537.41;;;28.99;30.46
6094;BME280;19964;42.060;24.700;2023-07-28T09:12:08;97527.34;;;29.40;29.84
6094;BME280;19964;42.060;24.700;2023-07-28T09:14:35;97530.03;;;29.24;29.64
6094;BME280;19964;42.060;24.700;2023-07-28T09:17:06;97532.75;;;29.90;30.80
6094;BME280;19964;42.060;24.700;2023-07-28T09:19:33;97527.19;;;29.33;30.22
6094;BME280;19964;42.060;24.700;2023-07-28T09:22:00;97540.78;;;29.12;30.56
6094;BME280;19964;42.060;24.700;2023-07-28T09:24:29;97526.28;;;28.97;29.96
6094;BME280;19964;42.060;24.700;2023-07-28T09:26:57;97528.56;;;29.73;29.47
6094;BME280;19964;42.060;24.700;2023-07-28T09:29:25;97516.25;;;30.23;30.69
6094;BME280;19964;42.060;24.700;2023-07-28T09:31:53;97513.34;;;30.12;28.32
6094;BME280;19964;42.060;24.700;2023-07-28T09:34:23;97518.44;;;29.82;28.42
6094;BME280;19964;42.060;24.700;2023-07-28T09:36:52;97505.19;;;29.70;31.30
6094;BME280;19964;42.060;24.700;2023-07-28T09:39:18;97503.41;;;29.94;31.33
6094;BME280;19964;42.060;24.700;2023-07-28T09:41:46;97501.06;;;29.73;28.61
6094;BME280;19964;42.060;24.700;2023-07-28T09:44:13;97504.66;;;29.65;29.11
6094;BME280;19964;42.060;24.700;2023-07-28T09:46:44;97499.16;;;30.46;27.27
6094;BME280;19964;42.060;24.700;2023-07-28T09:49:15;97500.63;;;30.44;27.92
6094;BME280;19964;42.060;24.700;2023-07-28T09:51:45;97494.22;;;30.10;30.04
6094;BME280;19964;42.060;24.700;2023-07-28T09:54:16;97496.31;;;30.20;28.08
6094;BME280;19964;42.060;24.700;2023-07-28T09:56:51;97486.03;;;30.60;26.73
6094;BME280;19964;42.060;24.700;2023-07-28T09:59:21;97484.75;;;30.73;29.31
6094;BME280;19964;42.060;24.700;2023-07-28T10:01:52;97484.72;;;31.38;28.24
6094;BME280;19964;42.060;24.700;2023-07-28T10:04:18;97479.53;;;30.81;29.85
6094;BME280;19964;42.060;24.700;2023-07-28T10:06:46;97483.66;;;30.78;26.86
6094;BME280;19964;42.060;24.700;2023-07-28T10:09:13;97467.06;;;31.60;28.68
6094;BME280;19964;42.060;24.700;2023-07-28T10:11:41;97472.47;;;30.92;27.10
6094;BME280;19964;42.060;24.700;2023-07-28T10:14:09;97469.28;;;31.05;27.70
6094;BME280;19964;42.060;24.700;2023-07-28T10:16:37;97475.53;;;31.39;27.99
6094;BME280;19964;42.060;24.700;2023-07-28T10:19:06;97468.34;;;31.20;26.87
6094;BME280;19964;42.060;24.700;2023-07-28T10:21:33;97470.22;;;31.69;27.16
6094;BME280;19964;42.060;24.700;2023-07-28T10:24:05;97464.31;;;30.62;25.94
6094;BME280;19964;42.060;24.700;2023-07-28T10:26:34;97452.09;;;30.64;27.36
6094;BME280;19964;42.060;24.700;2023-07-28T10:29:08;97451.72;;;30.43;26.54
6094;BME280;19964;42.060;24.700;2023-07-28T10:31:35;97450.50;;;30.60;28.65
6094;BME280;19964;42.060;24.700;2023-07-28T10:34:02;97448.97;;;30.40;25.66
6094;BME280;19964;42.060;24.700;2023-07-28T10:36:35;97452.00;;;30.19;27.46
6094;BME280;19964;42.060;24.700;2023-07-28T10:39:02;97453.81;;;30.95;27.00
6094;BME280;19964;42.060;24.700;2023-07-28T10:41:38;97441.72;;;29.83;26.69
6094;BME280;19964;42.060;24.700;2023-07-28T10:44:07;97440.63;;;29.84;26.82
6094;BME280;19964;42.060;24.700;2023-07-28T10:46:35;97437.91;;;31.06;27.68
6094;BME280;19964;42.060;24.700;2023-07-28T10:49:04;97427.06;;;32.07;26.78
6094;BME280;19964;42.060;24.700;2023-07-28T10:51:31;97428.50;;;31.68;24.43
6094;BME280;19964;42.060;24.700;2023-07-28T10:54:00;97420.94;;;31.21;24.57
6094;BME280;19964;42.060;24.700;2023-07-28T10:56:28;97426.44;;;31.05;25.64
6094;BME280;19964;42.060;24.700;2023-07-28T10:58:57;97424.69;;;31.42;25.79
6094;BME280;19964;42.060;24.700;2023-07-28T11:01:26;97425.22;;;30.35;26.57
6094;BME280;19964;42.060;24.700;2023-07-28T11:03:56;97424.09;;;30.81;25.85
6094;BME280;19964;42.060;24.700;2023-07-28T11:06:23;97411.31;;;30.71;29.71
6094;BME280;19964;42.060;24.700;2023-07-28T11:08:51;97416.13;;;31.07;26.94
6094;BME280;19964;42.060;24.700;2023-07-28T11:11:20;97411.09;;;30.80;26.31
6094;BME280;19964;42.060;24.700;2023-07-28T11:13:47;97417.31;;;31.36;25.71
6094;BME280;19964;42.060;24.700;2023-07-28T11:16:13;97421.06;;;30.60;25.15
6094;BME280;19964;42.060;24.700;2023-07-28T11:18:40;97422.53;;;30.35;24.09
6094;BME280;19964;42.060;24.700;2023-07-28T11:21:07;97416.16;;;29.82;25.98
6094;BME280;19964;42.060;24.700;2023-07-28T11:23:33;97410.50;;;30.06;26.79
6094;BME280;19964;42.060;24.700;2023-07-28T11:26:00;97413.22;;;30.70;26.34
6094;BME280;19964;42.060;24.700;2023-07-28T11:28:28;97405.03;;;31.05;25.75
6094;BME280;19964;42.060;24.700;2023-07-28T11:30:56;97410.00;;;31.33;26.71
6094;BME280;19964;42.060;24.700;2023-07-28T11:33:23;97395.31;;;31.23;25.66
6094;BME280;19964;42.060;24.700;2023-07-28T11:35:50;97393.78;;;30.96;25.35
6094;BME280;19964;42.060;24.700;2023-07-28T11:38:16;97392.63;;;30.74;26.87
6094;BME280;19964;42.060;24.700;2023-07-28T11:40:43;97392.16;;;30.27;25.20
6094;BME280;19964;42.060;24.700;2023-07-28T11:43:10;97393.19;;;30.61;27.45
6094;BME280;19964;42.060;24.700;2023-07-28T11:45:38;97391.38;;;30.23;26.45
6094;BME280;19964;42.060;24.700;2023-07-28T11:48:05;97382.84;;;30.18;25.29
6094;BME280;19964;42.060;24.700;2023-07-28T11:50:34;97385.16;;;30.38;26.90
6094;BME280;19964;42.060;24.700;2023-07-28T11:53:01;97374.59;;;29.31;26.12
6094;BME280;19964;42.060;24.700;2023-07-28T11:55:28;97377.88;;;29.59;26.03
6094;BME280;19964;42.060;24.700;2023-07-28T11:57:55;97378.38;;;29.83;25.80
6094;BME280;19964;42.060;24.700;2023-07-28T12:00:28;97368.09;;;29.66;25.82
6094;BME280;19964;42.060;24.700;2023-07-28T12:03:03;97370.47;;;29.52;25.55
6094;BME280;19964;42.060;24.700;2023-07-28T12:05:30;97375.31;;;29.47;26.12
6094;BME280;19964;42.060;24.700;2023-07-28T12:07:58;97363.13;;;29.84;27.70
6094;BME280;19964;42.060;24.700;2023-07-28T12:10:26;97356.63;;;29.66;26.19
6094;BME280;19964;42.060;24.700;2023-07-28T12:12:52;97362.34;;;29.83;26.12
6094;BME280;19964;42.060;24.700;2023-07-28T12:15:20;97358.47;;;29.81;27.07
6094;BME280;19964;42.060;24.700;2023-07-28T12:18:01;97361.31;;;30.11;25.89
6094;BME280;19964;42.060;24.700;2023-07-28T12:20:34;97352.94;;;30.12;26.97
6094;BME280;19964;42.060;24.700;2023-07-28T12:23:01;97350.50;;;29.65;26.53
6094;BME280;19964;42.060;24.700;2023-07-28T12:25:28;97346.25;;;29.80;26.87
6094;BME280;19964;42.060;24.700;2023-07-28T12:27:55;97339.13;;;29.88;26.13
6094;BME280;19964;42.060;24.700;2023-07-28T12:30:22;97335.63;;;29.64;26.33
6094;BME280;19964;42.060;24.700;2023-07-28T12:32:49;97336.28;;;30.19;27.35
6094;BME280;19964;42.060;24.700;2023-07-28T12:35:15;97336.25;;;30.38;28.53
6094;BME280;19964;42.060;24.700;2023-07-28T12:37:43;97331.72;;;30.00;26.61
6094;BME280;19964;42.060;24.700;2023-07-28T12:40:10;97327.56;;;30.03;26.15
6094;BME280;19964;42.060;24.700;2023-07-28T12:42:37;97322.13;;;30.18;26.13
6094;BME280;19964;42.060;24.700;2023-07-28T12:45:07;97313.09;;;30.26;26.34
6094;BME280;19964;42.060;24.700;2023-07-28T12:47:34;97319.13;;;30.01;26.63
6094;BME280;19964;42.060;24.700;2023-07-28T12:50:00;97312.22;;;30.19;27.94
6094;BME280;19964;42.060;24.700;2023-07-28T12:52:27;97310.59;;;30.14;26.91
6094;BME280;19964;42.060;24.700;2023-07-28T12:54:55;97309.66;;;30.03;27.35
6094;BME280;19964;42.060;24.700;2023-07-28T12:57:21;97303.19;;;30.27;26.29
6094;BME280;19964;42.060;24.700;2023-07-28T12:59:48;97308.50;;;30.04;26.86